createdAt,value
2019-02-25T00:00:10.087Z,32.15
2019-02-25T00:02:58.779Z,42.55
2019-02-25T00:05:47.288Z,33.30
2019-02-25T00:08:35.359Z,17.17
2019-02-25T00:11:23.795Z,14.60
2019-02-25T00:14:12.171Z,11.83
2019-02-25T00:17:00.693Z,29.70
2019-02-25T00:19:49.422Z,43.17
2019-02-25T00:22:38.439Z,33.78
2019-02-25T00:25:27.117Z,32.80
2019-02-25T00:28:15.055Z,25.92
2019-02-25T00:31:03.684Z,23.73
2019-02-25T00:33:52.205Z,20.72
2019-02-25T00:36:41.066Z,20.75
2019-02-25T00:39:29.752Z,18.82
2019-02-25T00:42:18.507Z,15.30
2019-02-25T00:45:07.283Z,13.08
2019-02-25T00:47:55.851Z,18.00
2019-02-25T00:50:44.925Z,15.80
2019-02-25T00:53:33.818Z,13.90
2019-02-25T00:56:22.315Z,15.75
2019-02-25T00:59:10.498Z,17.98
2019-02-25T01:01:59.045Z,18.02
2019-02-25T01:04:47.651Z,18.63
2019-02-25T01:07:36.291Z,12.82
2019-02-25T01:10:24.921Z,15.80
2019-02-25T01:13:13.138Z,13.80
2019-02-25T01:16:01.960Z,10.63
2019-02-25T01:18:50.528Z,14.93
2019-02-25T01:21:39.041Z,14.45
2019-02-25T01:24:27.351Z,12.93
2019-02-25T01:27:15.639Z,13.65
2019-02-25T01:30:05.887Z,15.20
2019-02-25T01:32:55.643Z,14.80
2019-02-25T01:35:44.726Z,14.60
2019-02-25T01:38:33.259Z,13.45
2019-02-25T01:41:22.108Z,14.03
2019-02-25T01:44:10.787Z,15.53
2019-02-25T01:46:59.589Z,11.85
2019-02-25T01:49:48.217Z,13.10
2019-02-25T01:52:36.984Z,12.98
2019-02-25T01:55:25.587Z,14.10
2019-02-25T01:58:14.543Z,15.48
2019-02-25T02:01:03.598Z,12.23
2019-02-25T02:03:52.554Z,12.90
2019-02-25T02:06:40.983Z,12.25
2019-02-25T02:09:30.089Z,13.60
2019-02-25T02:12:19.099Z,9.50
2019-02-25T02:15:10.673Z,10.85
2019-02-25T02:18:00.031Z,12.95
2019-02-25T02:20:48.772Z,13.30
2019-02-25T02:23:37.582Z,14.23
2019-02-25T02:26:26.356Z,16.32
2019-02-25T02:29:15.261Z,15.15
2019-02-25T02:32:03.755Z,11.75
2019-02-25T02:34:52.826Z,13.80
2019-02-25T02:37:41.656Z,11.85
2019-02-25T02:40:30.446Z,14.15
2019-02-25T02:43:19.352Z,8.90
2019-02-25T02:46:15.705Z,10.78
2019-02-25T02:49:05.270Z,11.00
2019-02-25T02:51:53.586Z,13.20
2019-02-25T02:54:41.797Z,10.85
2019-02-25T02:57:30.457Z,10.35
2019-02-25T03:00:19.568Z,8.90
2019-02-25T03:03:08.269Z,9.65
2019-02-25T03:05:56.874Z,12.75
2019-02-25T03:08:46.644Z,11.53
2019-02-25T03:11:35.672Z,10.78
2019-02-25T03:14:24.009Z,12.88
2019-02-25T03:17:12.615Z,13.85
2019-02-25T03:20:01.390Z,11.73
2019-02-25T03:22:49.946Z,12.90
2019-02-25T03:25:38.682Z,8.38
2019-02-25T03:28:26.978Z,10.38
2019-02-25T03:31:15.489Z,11.35
2019-02-25T03:34:03.662Z,14.70
2019-02-25T03:36:52.231Z,10.80
2019-02-25T03:39:40.857Z,12.00
2019-02-25T03:42:29.541Z,12.10
2019-02-25T03:45:18.712Z,14.53
2019-02-25T03:48:07.036Z,12.35
2019-02-25T03:50:55.795Z,12.03
2019-02-25T03:53:44.083Z,10.28
2019-02-25T03:56:32.571Z,15.38
2019-02-25T03:59:21.628Z,12.68
2019-02-25T04:02:10.135Z,12.05
2019-02-25T04:04:59.008Z,12.23
2019-02-25T04:07:47.660Z,12.55
2019-02-25T04:10:36.375Z,10.40
2019-02-25T04:13:25.279Z,11.57
2019-02-25T04:16:13.386Z,11.08
2019-02-25T04:19:02.351Z,12.65
2019-02-25T04:21:50.468Z,12.82
2019-02-25T04:24:38.902Z,13.58
2019-02-25T04:27:27.500Z,11.83
2019-02-25T04:30:16.384Z,9.95
2019-02-25T04:33:04.799Z,13.48
2019-02-25T04:35:52.844Z,13.33
2019-02-25T04:38:41.310Z,13.55
2019-02-25T04:41:29.878Z,17.07
2019-02-25T04:44:18.492Z,9.03
2019-02-25T04:47:07.376Z,16.02
2019-02-25T04:49:55.816Z,16.47
2019-02-25T04:52:44.032Z,12.18
2019-02-25T04:55:33.166Z,12.90
2019-02-25T04:58:22.062Z,12.37
2019-02-25T05:01:10.710Z,11.83
2019-02-25T05:03:59.256Z,12.80
2019-02-25T05:06:48.082Z,12.30
2019-02-25T05:09:36.202Z,10.68
2019-02-25T05:12:24.626Z,11.50
2019-02-25T05:15:15.377Z,14.38
2019-02-25T05:18:04.338Z,12.70
2019-02-25T05:20:53.148Z,12.43
2019-02-25T05:23:41.976Z,12.70
2019-02-25T05:26:30.408Z,9.50
2019-02-25T05:29:18.857Z,12.80
2019-02-25T05:32:07.182Z,20.65
2019-02-25T05:34:55.830Z,14.00
2019-02-25T05:37:44.552Z,13.00
2019-02-25T05:40:33.393Z,15.78
2019-02-25T05:43:21.722Z,18.70
2019-02-25T05:46:10.445Z,10.68
2019-02-25T05:48:59.058Z,13.43
2019-02-25T05:51:47.976Z,13.65
2019-02-25T05:54:36.415Z,13.32
2019-02-25T05:57:24.544Z,15.90
2019-02-25T06:00:17.816Z,11.93
2019-02-25T06:03:06.849Z,14.05
2019-02-25T06:05:55.892Z,11.20
2019-02-25T06:08:44.714Z,13.72
2019-02-25T06:11:33.801Z,13.90
2019-02-25T06:14:22.142Z,13.43
2019-02-25T06:17:10.133Z,13.53
2019-02-25T06:19:58.832Z,11.77
2019-02-25T06:22:47.558Z,14.65
2019-02-25T06:25:38.983Z,17.02
2019-02-25T06:28:28.092Z,15.40
2019-02-25T06:31:16.679Z,13.28
2019-02-25T06:34:05.529Z,10.40
2019-02-25T06:36:54.320Z,16.67
2019-02-25T06:39:43.135Z,15.30
2019-02-25T06:42:31.930Z,12.95
2019-02-25T06:45:20.644Z,16.30
2019-02-25T06:48:09.528Z,10.88
2019-02-25T06:50:58.613Z,13.58
2019-02-25T06:53:47.570Z,16.65
2019-02-25T06:56:36.494Z,13.43
2019-02-25T06:59:25.520Z,17.92
2019-02-25T07:02:13.664Z,15.65
2019-02-25T07:05:12.355Z,17.27
2019-02-25T07:08:06.599Z,20.17
2019-02-25T07:11:13.855Z,14.65
2019-02-25T07:14:07.955Z,21.95
2019-02-25T07:17:33.705Z,16.25
2019-02-25T07:20:42.708Z,16.00
2019-02-25T07:23:56.867Z,21.60
2019-02-25T07:26:55.156Z,19.73
2019-02-25T07:30:08.604Z,14.40
2019-02-25T07:33:15.849Z,14.07
2019-02-25T07:36:21.746Z,13.20
2019-02-25T07:39:25.173Z,14.47
2019-02-25T07:42:33.329Z,17.70
2019-02-25T07:45:56.344Z,15.88
2019-02-25T07:49:02.866Z,11.48
2019-02-25T07:52:28.785Z,12.37
2019-02-25T07:55:32.715Z,14.00
2019-02-25T07:58:26.452Z,10.55
2019-02-25T08:01:25.475Z,16.12
2019-02-25T08:04:35.512Z,12.23
2019-02-25T08:07:42.485Z,13.25
2019-02-25T08:10:37.499Z,11.55
2019-02-25T08:13:48.432Z,13.58
2019-02-25T08:17:01.424Z,12.82
2019-02-25T08:20:14.850Z,14.30
2019-02-25T08:23:22.766Z,9.33
2019-02-25T08:26:29.729Z,11.20
2019-02-25T08:29:40.589Z,10.10
2019-02-25T08:32:43.820Z,9.65
2019-02-25T08:36:37.015Z,10.43
2019-02-25T08:39:33.504Z,10.90
2019-02-25T08:42:45.315Z,13.18
2019-02-25T08:45:45.295Z,9.33
2019-02-25T08:48:37.664Z,8.50
2019-02-25T08:51:26.301Z,10.35
2019-02-25T08:54:14.360Z,8.90
2019-02-25T08:57:03.458Z,9.30
2019-02-25T08:59:52.221Z,11.30
2019-02-25T09:02:41.194Z,9.50
2019-02-25T09:05:29.429Z,12.33
2019-02-25T09:08:17.537Z,10.55
2019-02-25T09:11:13.904Z,9.75
2019-02-25T09:13:56.097Z,11.33
2019-02-25T09:16:44.754Z,9.40
2019-02-25T09:19:33.247Z,10.03
2019-02-25T09:22:21.914Z,8.90
2019-02-25T09:25:10.510Z,11.85
2019-02-25T09:27:58.586Z,8.40
2019-02-25T09:30:47.336Z,8.88
2019-02-25T09:33:36.513Z,7.37
2019-02-25T09:36:25.728Z,9.60
2019-02-25T09:39:16.677Z,11.05
2019-02-25T09:42:04.767Z,11.50
2019-02-25T09:44:53.347Z,10.28
2019-02-25T09:47:41.959Z,9.90
2019-02-25T09:50:31.618Z,7.08
2019-02-25T09:53:19.731Z,8.55
2019-02-25T09:56:08.960Z,10.20
2019-02-25T09:58:57.631Z,6.47
2019-02-25T10:01:46.823Z,9.68
2019-02-25T10:04:36.132Z,7.77
2019-02-25T10:07:24.417Z,11.03
2019-02-25T10:10:13.857Z,8.85
2019-02-25T10:13:02.631Z,8.03
2019-02-25T10:15:50.861Z,6.42
2019-02-25T10:18:39.796Z,7.33
2019-02-25T10:21:28.176Z,8.35
2019-02-25T10:24:16.778Z,9.88
2019-02-25T10:27:05.034Z,4.95
2019-02-25T10:29:53.656Z,8.33
2019-02-25T10:32:42.567Z,9.13
2019-02-25T10:35:31.418Z,4.80
2019-02-25T10:38:21.617Z,11.00
2019-02-25T10:41:09.836Z,8.60
2019-02-25T10:44:00.251Z,13.53
2019-02-25T10:46:49.627Z,9.00
2019-02-25T10:49:38.492Z,9.13
2019-02-25T10:52:27.107Z,8.10
2019-02-25T10:55:23.136Z,9.48
2019-02-25T10:58:11.393Z,8.60
2019-02-25T11:01:00.228Z,10.00
2019-02-25T11:03:49.971Z,6.37
2019-02-25T11:06:38.909Z,7.25
2019-02-25T11:09:50.377Z,5.65
2019-02-25T11:12:40.492Z,6.45
2019-02-25T11:15:31.531Z,9.88
2019-02-25T11:18:22.455Z,6.70
2019-02-25T11:21:10.771Z,6.30
2019-02-25T11:24:00.085Z,8.25
2019-02-25T11:26:48.988Z,7.72
2019-02-25T11:29:39.845Z,7.33
2019-02-25T11:32:28.156Z,8.57
2019-02-25T11:35:17.404Z,8.60
2019-02-25T11:38:05.788Z,7.20
2019-02-25T11:40:54.559Z,8.17
2019-02-25T11:43:45.363Z,8.10
2019-02-25T11:46:33.138Z,7.67
2019-02-25T11:49:21.808Z,11.83
2019-02-25T11:52:11.042Z,6.90
2019-02-25T11:54:59.829Z,8.33
2019-02-25T11:57:48.854Z,9.73
2019-02-25T12:00:37.406Z,7.57
2019-02-25T12:03:26.160Z,6.07
2019-02-25T12:06:14.382Z,8.30
2019-02-25T12:09:02.392Z,7.80
2019-02-25T12:11:50.536Z,7.60
2019-02-25T12:14:39.798Z,7.80
2019-02-25T12:17:28.229Z,7.57
2019-02-25T12:20:17.261Z,6.47
2019-02-25T12:23:06.096Z,8.60
2019-02-25T12:25:54.793Z,7.30
2019-02-25T12:28:43.913Z,6.93
2019-02-25T12:31:32.136Z,9.13
2019-02-25T12:34:20.769Z,11.00
2019-02-25T12:37:09.075Z,6.77
2019-02-25T12:39:57.403Z,7.27
2019-02-25T12:42:46.508Z,7.43
2019-02-25T12:45:35.263Z,9.00
2019-02-25T12:48:24.428Z,9.53
2019-02-25T12:51:13.345Z,7.50
2019-02-25T12:54:01.448Z,8.47
2019-02-25T12:56:49.890Z,9.90
2019-02-25T12:59:38.335Z,10.23
2019-02-25T13:02:27.196Z,7.87
2019-02-25T13:05:18.016Z,6.37
2019-02-25T13:08:07.130Z,8.20
2019-02-25T13:10:55.852Z,8.87
2019-02-25T13:13:44.787Z,9.50
2019-02-25T13:16:33.499Z,9.00
2019-02-25T13:19:22.343Z,11.55
2019-02-25T13:22:10.600Z,7.47
2019-02-25T13:25:00.714Z,7.47
2019-02-25T13:27:51.824Z,7.85
2019-02-25T13:30:39.841Z,6.13
2019-02-25T13:33:28.906Z,6.20
2019-02-25T13:36:17.985Z,7.90
2019-02-25T13:39:08.307Z,6.97
2019-02-25T13:41:56.723Z,6.33
2019-02-25T13:44:45.256Z,6.25
2019-02-25T13:47:34.089Z,6.45
2019-02-25T13:50:23.157Z,8.43
2019-02-25T13:53:11.652Z,8.28
2019-02-25T13:56:01.149Z,8.20
2019-02-25T13:58:49.879Z,6.57
2019-02-25T14:01:38.567Z,4.83
2019-02-25T14:04:27.782Z,5.30
2019-02-25T14:07:16.333Z,6.08
2019-02-25T14:10:07.838Z,7.30
2019-02-25T14:12:56.199Z,5.25
2019-02-25T14:15:44.951Z,4.73
2019-02-25T14:18:33.948Z,6.62
2019-02-25T14:21:22.522Z,9.98
2019-02-25T14:24:11.585Z,4.90
2019-02-25T14:26:59.707Z,5.65
2019-02-25T14:32:37.701Z,5.97
2019-02-25T14:35:28.525Z,5.40
2019-02-25T14:38:18.386Z,6.40
2019-02-25T14:41:07.231Z,7.60
2019-02-25T14:43:58.752Z,4.00
2019-02-25T14:46:47.219Z,6.23
2019-02-25T14:49:37.742Z,6.07
2019-02-25T14:52:26.844Z,5.50
2019-02-25T14:55:16.445Z,4.23
2019-02-25T14:58:07.533Z,5.70
2019-02-25T15:00:56.268Z,6.33
2019-02-25T15:03:44.701Z,4.80
2019-02-25T15:06:34.755Z,5.17
2019-02-25T15:09:23.222Z,6.60
2019-02-25T15:12:12.353Z,7.57
2019-02-25T15:15:02.691Z,5.73
2019-02-25T15:17:52.762Z,4.20
2019-02-25T15:20:41.631Z,7.10
2019-02-25T15:23:30.040Z,15.00
2019-02-25T15:26:19.871Z,8.50
2019-02-25T15:29:09.338Z,6.70
2019-02-25T15:31:59.316Z,7.40
2019-02-25T15:34:50.756Z,7.93
2019-02-25T15:37:40.628Z,7.43
2019-02-25T15:40:29.537Z,4.77
2019-02-25T15:43:20.345Z,8.67
2019-02-25T15:46:08.147Z,6.77
2019-02-25T15:48:56.529Z,6.43
2019-02-25T15:51:51.369Z,9.37
2019-02-25T15:54:41.406Z,10.77
2019-02-25T15:57:30.763Z,5.93
2019-02-25T16:00:21.264Z,6.27
2019-02-25T16:03:11.675Z,7.50
2019-02-25T16:06:03.944Z,7.10
2019-02-25T16:08:52.139Z,8.50
2019-02-25T16:11:43.997Z,4.50
2019-02-25T16:14:32.453Z,6.60
2019-02-25T16:17:22.332Z,6.37
2019-02-25T16:20:11.603Z,7.63
2019-02-25T16:23:00.478Z,6.43
2019-02-25T16:25:52.636Z,6.33
2019-02-25T16:28:41.567Z,6.43
2019-02-25T16:31:32.690Z,7.30
2019-02-25T16:34:20.904Z,8.03
2019-02-25T16:37:12.039Z,7.23
2019-02-25T16:40:03.075Z,7.50
2019-02-25T16:42:50.962Z,6.57
2019-02-25T16:45:41.872Z,6.63
2019-02-25T16:48:32.065Z,6.77
2019-02-25T16:51:20.214Z,7.50
2019-02-25T16:54:11.001Z,6.47
2019-02-25T16:56:59.249Z,8.30
2019-02-25T16:59:48.481Z,9.17
2019-02-25T17:02:38.467Z,5.80
2019-02-25T17:05:27.219Z,6.97
2019-02-25T17:08:19.090Z,9.67
2019-02-25T17:11:08.175Z,8.63
2019-02-25T17:13:57.736Z,11.43
2019-02-25T17:16:46.838Z,10.83
2019-02-25T17:19:35.791Z,10.90
2019-02-25T17:22:25.263Z,12.87
2019-02-25T17:25:13.829Z,11.47
2019-02-25T17:28:02.851Z,8.40
2019-02-25T17:30:52.731Z,9.90
2019-02-25T17:33:41.666Z,11.53
2019-02-25T17:36:30.018Z,10.80
2019-02-25T17:39:18.811Z,12.60
2019-02-25T17:42:09.258Z,10.70
2019-02-25T17:44:59.881Z,10.00
2019-02-25T17:47:48.631Z,12.05
2019-02-25T17:50:37.578Z,10.77
2019-02-25T17:53:28.381Z,11.83
2019-02-25T17:56:18.632Z,13.25
2019-02-25T17:59:09.646Z,13.28
2019-02-25T18:01:58.404Z,17.07
2019-02-25T18:04:47.471Z,15.73
2019-02-25T18:07:37.740Z,14.33
2019-02-25T18:10:28.972Z,17.05
2019-02-25T18:13:17.479Z,16.20
2019-02-25T18:16:07.988Z,20.75
2019-02-25T18:18:56.875Z,14.13
2019-02-25T18:21:46.309Z,13.10
2019-02-25T18:24:35.544Z,14.40
2019-02-25T18:27:24.313Z,17.52
2019-02-25T18:30:13.965Z,17.40
2019-02-25T18:33:04.638Z,16.62
2019-02-25T18:35:52.237Z,11.90
2019-02-25T18:38:40.968Z,15.05
2019-02-25T18:41:33.614Z,17.82
2019-02-25T18:44:19.863Z,15.58
2019-02-25T18:47:08.591Z,13.95
2019-02-25T18:49:58.800Z,12.28
2019-02-25T18:52:48.146Z,14.65
2019-02-25T18:55:37.641Z,10.53
2019-02-25T18:58:26.476Z,13.83
2019-02-25T19:01:17.560Z,11.22
2019-02-25T19:04:08.054Z,10.43
2019-02-25T19:06:59.788Z,11.70
2019-02-25T19:09:49.344Z,17.10
2019-02-25T19:12:38.772Z,9.70
2019-02-25T19:15:27.216Z,14.78
2019-02-25T19:18:17.734Z,12.78
2019-02-25T19:21:08.705Z,16.77
2019-02-25T19:23:57.540Z,13.08
2019-02-25T19:26:47.407Z,15.72
2019-02-25T19:29:37.241Z,16.40
2019-02-25T19:32:25.803Z,16.67
2019-02-25T19:35:15.326Z,17.35
2019-02-25T19:38:05.814Z,16.07
2019-02-25T19:40:55.941Z,18.27
2019-02-25T19:43:45.256Z,17.77
2019-02-25T19:46:34.364Z,20.68
2019-02-25T19:49:23.418Z,20.35
2019-02-25T19:52:12.495Z,19.15
2019-02-25T19:55:05.626Z,22.55
2019-02-25T19:57:52.553Z,26.73
2019-02-25T20:00:41.544Z,19.00
2019-02-25T20:03:32.884Z,17.87
2019-02-25T20:06:21.565Z,15.55
2019-02-25T20:09:12.914Z,20.05
2019-02-25T20:12:02.551Z,17.60
2019-02-25T20:14:51.400Z,22.30
2019-02-25T20:17:39.608Z,19.55
2019-02-25T20:20:36.281Z,17.87
2019-02-25T20:23:26.570Z,14.80
2019-02-25T20:26:15.525Z,14.18
2019-02-25T20:29:06.354Z,13.35
2019-02-25T20:31:56.182Z,13.30
2019-02-25T20:34:46.334Z,13.30
2019-02-25T20:37:35.966Z,18.65
2019-02-25T20:40:28.232Z,13.93
2019-02-25T20:43:19.345Z,13.05
2019-02-25T20:46:08.627Z,14.50
2019-02-25T20:48:57.778Z,16.23
2019-02-25T20:51:48.370Z,13.53
2019-02-25T20:54:40.707Z,14.80
2019-02-25T20:57:29.538Z,19.52
2019-02-25T21:00:20.297Z,13.83
2019-02-25T21:03:12.094Z,16.00
2019-02-25T21:05:59.800Z,19.60
2019-02-25T21:08:48.755Z,21.30
2019-02-25T21:11:37.898Z,24.10
2019-02-25T21:14:29.513Z,25.77
2019-02-25T21:17:17.051Z,19.23
2019-02-25T21:20:08.353Z,17.45
2019-02-25T21:23:02.140Z,23.77
2019-02-25T21:25:47.883Z,18.02
2019-02-25T21:28:38.053Z,17.70
2019-02-25T21:31:26.620Z,22.02
2019-02-25T21:34:17.761Z,17.33
2019-02-25T21:37:05.258Z,19.85
2019-02-25T21:39:53.980Z,15.60
2019-02-25T21:42:44.353Z,16.45
2019-02-25T21:45:32.826Z,18.35
2019-02-25T21:48:25.055Z,15.40
2019-02-25T21:51:12.355Z,12.98
2019-02-25T21:54:04.438Z,14.35
2019-02-25T21:56:52.378Z,22.62
2019-02-25T21:59:41.476Z,22.02
2019-02-25T22:02:30.780Z,24.05
2019-02-25T22:05:21.358Z,22.32
2019-02-25T22:08:09.613Z,15.83
2019-02-25T22:11:11.742Z,16.55
2019-02-25T22:13:49.000Z,24.67
2019-02-25T22:16:44.119Z,16.15
2019-02-25T22:19:28.122Z,17.53
2019-02-25T22:22:16.820Z,13.65
2019-02-25T22:25:06.629Z,17.35
2019-02-25T22:27:56.206Z,13.62
2019-02-25T22:30:47.385Z,16.87
2019-02-25T22:33:35.702Z,13.05
2019-02-25T22:36:24.510Z,14.33
2019-02-25T22:39:13.199Z,11.50
2019-02-25T22:42:03.568Z,16.65
2019-02-25T22:44:54.030Z,14.68
2019-02-25T22:47:42.160Z,17.35
2019-02-25T22:50:31.216Z,13.17
2019-02-25T22:53:21.178Z,17.82
2019-02-25T22:56:13.408Z,13.45
2019-02-25T22:59:02.694Z,16.95
2019-02-25T23:01:52.617Z,14.65
2019-02-25T23:04:40.984Z,14.13
2019-02-25T23:07:30.879Z,14.38
2019-02-25T23:10:21.839Z,11.93
2019-02-25T23:13:10.211Z,11.50
2019-02-25T23:15:59.036Z,10.08
2019-02-25T23:18:48.038Z,11.18
2019-02-25T23:21:38.339Z,13.13
2019-02-25T23:24:30.021Z,14.75
2019-02-25T23:27:17.792Z,10.95
2019-02-25T23:30:08.626Z,10.65
2019-02-25T23:32:56.864Z,12.47
2019-02-25T23:35:46.963Z,16.47
2019-02-25T23:38:36.601Z,11.28
2019-02-25T23:41:25.367Z,15.40
2019-02-25T23:44:15.143Z,12.45
2019-02-25T23:47:04.859Z,18.02
2019-02-25T23:49:53.693Z,15.83
2019-02-25T23:52:42.197Z,22.73
2019-02-25T23:55:30.908Z,15.43
2019-02-25T23:58:20.154Z,20.62
